sensor_id;sensor_type;location;lat;lon;timestamp;P1;durP1;ratioP1;P2;durP2;ratioP2
12990;SDS011;6560;57.692;11.958;2022-08-05T00:00:44;19.52;;;9.80;;
12990;SDS011;6560;57.692;11.958;2022-08-05T00:03:10;13.40;;;9.57;;
12990;SDS011;6560;57.692;11.958;2022-08-05T00:05:35;18.73;;;10.02;;
12990;SDS011;6560;57.692;11.958;2022-08-05T00:08:01;11.00;;;8.50;;
12990;SDS011;6560;57.692;11.958;2022-08-05T00:10:26;15.60;;;8.88;;
12990;SDS011;6560;57.692;11.958;2022-08-05T00:12:52;15.40;;;8.63;;
12990;SDS011;6560;57.692;11.958;2022-08-05T00:15:17;10.48;;;7.28;;
12990;SDS011;6560;57.692;11.958;2022-08-05T00:17:43;17.10;;;7.77;;
12990;SDS011;6560;57.692;11.958;2022-08-05T00:20:08;14.47;;;7.10;;
12990;SDS011;6560;57.692;11.958;2022-08-05T00:22:34;10.82;;;6.50;;
12990;SDS011;6560;57.692;11.958;2022-08-05T00:25:00;9.93;;;5.23;;
12990;SDS011;6560;57.692;11.958;2022-08-05T00:27:26;8.70;;;5.32;;
12990;SDS011;6560;57.692;11.958;2022-08-05T00:29:52;11.47;;;5.57;;
12990;SDS011;6560;57.692;11.958;2022-08-05T00:32:17;15.63;;;6.25;;
12990;SDS011;6560;57.692;11.958;2022-08-05T00:34:43;8.65;;;5.13;;
12990;SDS011;6560;57.692;11.958;2022-08-05T00:37:09;11.50;;;5.93;;
12990;SDS011;6560;57.692;11.958;2022-08-05T00:39:34;8.17;;;4.60;;
12990;SDS011;6560;57.692;11.958;2022-08-05T00:42:00;10.53;;;4.93;;
12990;SDS011;6560;57.692;11.958;2022-08-05T00:44:26;9.87;;;4.90;;
12990;SDS011;6560;57.692;11.958;2022-08-05T00:46:51;9.77;;;5.63;;
12990;SDS011;6560;57.692;11.958;2022-08-05T00:49:17;17.15;;;5.68;;
12990;SDS011;6560;57.692;11.958;2022-08-05T00:51:44;13.75;;;4.85;;
12990;SDS011;6560;57.692;11.958;2022-08-05T00:54:10;11.37;;;4.90;;
12990;SDS011;6560;57.692;11.958;2022-08-05T00:56:37;7.23;;;4.67;;
12990;SDS011;6560;57.692;11.958;2022-08-05T00:59:03;11.70;;;6.03;;
12990;SDS011;6560;57.692;11.958;2022-08-05T01:01:29;9.23;;;4.90;;
12990;SDS011;6560;57.692;11.958;2022-08-05T01:03:54;7.83;;;4.90;;
12990;SDS011;6560;57.692;11.958;2022-08-05T01:06:20;15.47;;;6.23;;
12990;SDS011;6560;57.692;11.958;2022-08-05T01:08:45;11.00;;;5.37;;
12990;SDS011;6560;57.692;11.958;2022-08-05T01:14:01;10.17;;;5.63;;
12990;SDS011;6560;57.692;11.958;2022-08-05T01:16:36;12.33;;;4.77;;
12990;SDS011;6560;57.692;11.958;2022-08-05T01:21:48;10.57;;;4.97;;
12990;SDS011;6560;57.692;11.958;2022-08-05T01:24:44;11.67;;;4.00;;
12990;SDS011;6560;57.692;11.958;2022-08-05T01:30:09;9.30;;;3.77;;
12990;SDS011;6560;57.692;11.958;2022-08-05T01:32:37;8.63;;;4.17;;
12990;SDS011;6560;57.692;11.958;2022-08-05T01:35:07;12.77;;;4.23;;
12990;SDS011;6560;57.692;11.958;2022-08-05T01:37:38;10.83;;;3.70;;
12990;SDS011;6560;57.692;11.958;2022-08-05T01:40:08;8.70;;;4.03;;
12990;SDS011;6560;57.692;11.958;2022-08-05T01:42:35;10.90;;;4.27;;
12990;SDS011;6560;57.692;11.958;2022-08-05T01:45:03;8.80;;;4.13;;
12990;SDS011;6560;57.692;11.958;2022-08-05T01:47:31;6.70;;;4.00;;
12990;SDS011;6560;57.692;11.958;2022-08-05T01:49:59;11.73;;;3.80;;
12990;SDS011;6560;57.692;11.958;2022-08-05T01:52:26;8.20;;;3.77;;
12990;SDS011;6560;57.692;11.958;2022-08-05T01:54:58;8.97;;;4.20;;
12990;SDS011;6560;57.692;11.958;2022-08-05T01:57:31;9.47;;;3.97;;
12990;SDS011;6560;57.692;11.958;2022-08-05T02:00:02;6.83;;;3.47;;
12990;SDS011;6560;57.692;11.958;2022-08-05T02:02:30;9.57;;;4.63;;
12990;SDS011;6560;57.692;11.958;2022-08-05T02:04:57;12.93;;;4.00;;
12990;SDS011;6560;57.692;11.958;2022-08-05T02:07:26;13.77;;;3.67;;
12990;SDS011;6560;57.692;11.958;2022-08-05T02:09:52;8.10;;;3.60;;
12990;SDS011;6560;57.692;11.958;2022-08-05T02:12:20;6.87;;;4.03;;
12990;SDS011;6560;57.692;11.958;2022-08-05T02:14:52;10.27;;;3.87;;
12990;SDS011;6560;57.692;11.958;2022-08-05T02:17:53;6.63;;;3.13;;
12990;SDS011;6560;57.692;11.958;2022-08-05T02:20:40;13.40;;;4.40;;
12990;SDS011;6560;57.692;11.958;2022-08-05T02:23:11;6.97;;;3.50;;
12990;SDS011;6560;57.692;11.958;2022-08-05T02:25:38;5.73;;;3.53;;
12990;SDS011;6560;57.692;11.958;2022-08-05T02:28:07;11.83;;;3.80;;
12990;SDS011;6560;57.692;11.958;2022-08-05T02:30:50;12.23;;;3.53;;
12990;SDS011;6560;57.692;11.958;2022-08-05T02:33:20;8.63;;;4.70;;
12990;SDS011;6560;57.692;11.958;2022-08-05T02:35:48;9.07;;;4.70;;
12990;SDS011;6560;57.692;11.958;2022-08-05T02:38:14;12.00;;;4.90;;
12990;SDS011;6560;57.692;11.958;2022-08-05T02:40:42;17.73;;;4.50;;
12990;SDS011;6560;57.692;11.958;2022-08-05T02:43:09;8.57;;;5.03;;
12990;SDS011;6560;57.692;11.958;2022-08-05T02:45:37;7.80;;;3.90;;
12990;SDS011;6560;57.692;11.958;2022-08-05T02:48:04;10.57;;;4.07;;
12990;SDS011;6560;57.692;11.958;2022-08-05T02:50:32;5.82;;;2.97;;
12990;SDS011;6560;57.692;11.958;2022-08-05T02:52:59;17.87;;;3.70;;
12990;SDS011;6560;57.692;11.958;2022-08-05T02:55:25;5.30;;;3.10;;
12990;SDS011;6560;57.692;11.958;2022-08-05T02:57:52;8.03;;;3.37;;
12990;SDS011;6560;57.692;11.958;2022-08-05T03:00:19;7.93;;;3.77;;
12990;SDS011;6560;57.692;11.958;2022-08-05T03:02:45;9.40;;;3.80;;
12990;SDS011;6560;57.692;11.958;2022-08-05T03:05:11;9.17;;;4.53;;
12990;SDS011;6560;57.692;11.958;2022-08-05T03:07:39;11.93;;;5.43;;
12990;SDS011;6560;57.692;11.958;2022-08-05T03:10:05;11.77;;;4.80;;
12990;SDS011;6560;57.692;11.958;2022-08-05T03:12:32;8.73;;;5.10;;
12990;SDS011;6560;57.692;11.958;2022-08-05T03:15:06;5.10;;;4.30;;
12990;SDS011;6560;57.692;11.958;2022-08-05T03:17:33;9.33;;;3.70;;
12990;SDS011;6560;57.692;11.958;2022-08-05T03:19:58;4.97;;;3.35;;
12990;SDS011;6560;57.692;11.958;2022-08-05T03:22:24;7.07;;;4.83;;
12990;SDS011;6560;57.692;11.958;2022-08-05T03:24:50;10.10;;;4.40;;
12990;SDS011;6560;57.692;11.958;2022-08-05T03:27:17;7.33;;;4.13;;
12990;SDS011;6560;57.692;11.958;2022-08-05T03:29:46;8.13;;;5.30;;
12990;SDS011;6560;57.692;11.958;2022-08-05T03:32:12;9.87;;;4.33;;
12990;SDS011;6560;57.692;11.958;2022-08-05T03:34:39;7.23;;;4.20;;
12990;SDS011;6560;57.692;11.958;2022-08-05T03:37:05;7.70;;;4.30;;
12990;SDS011;6560;57.692;11.958;2022-08-05T03:39:30;5.80;;;4.43;;
12990;SDS011;6560;57.692;11.958;2022-08-05T03:41:56;8.73;;;4.07;;
12990;SDS011;6560;57.692;11.958;2022-08-05T03:44:22;7.37;;;4.67;;
12990;SDS011;6560;57.692;11.958;2022-08-05T03:46:48;9.37;;;4.50;;
12990;SDS011;6560;57.692;11.958;2022-08-05T03:49:14;6.43;;;3.43;;
12990;SDS011;6560;57.692;11.958;2022-08-05T03:51:59;8.53;;;3.80;;
12990;SDS011;6560;57.692;11.958;2022-08-05T03:57:00;9.57;;;3.97;;
12990;SDS011;6560;57.692;11.958;2022-08-05T03:59:30;4.63;;;3.58;;
12990;SDS011;6560;57.692;11.958;2022-08-05T04:01:59;8.63;;;3.88;;
12990;SDS011;6560;57.692;11.958;2022-08-05T04:04:26;12.20;;;3.60;;
12990;SDS011;6560;57.692;11.958;2022-08-05T04:06:54;11.82;;;3.72;;
12990;SDS011;6560;57.692;11.958;2022-08-05T04:09:21;9.60;;;4.00;;
12990;SDS011;6560;57.692;11.958;2022-08-05T04:11:47;8.00;;;3.67;;
12990;SDS011;6560;57.692;11.958;2022-08-05T04:14:14;7.65;;;3.25;;
12990;SDS011;6560;57.692;11.958;2022-08-05T04:16:41;9.45;;;3.72;;
12990;SDS011;6560;57.692;11.958;2022-08-05T04:19:10;8.27;;;3.17;;
12990;SDS011;6560;57.692;11.958;2022-08-05T04:21:36;10.55;;;3.20;;
12990;SDS011;6560;57.692;11.958;2022-08-05T04:24:02;6.78;;;3.22;;
12990;SDS011;6560;57.692;11.958;2022-08-05T04:26:29;5.82;;;3.00;;
12990;SDS011;6560;57.692;11.958;2022-08-05T04:28:54;8.52;;;2.58;;
12990;SDS011;6560;57.692;11.958;2022-08-05T04:31:20;5.93;;;2.83;;
12990;SDS011;6560;57.692;11.958;2022-08-05T04:33:45;7.68;;;2.90;;
12990;SDS011;6560;57.692;11.958;2022-08-05T04:36:11;4.32;;;2.22;;
12990;SDS011;6560;57.692;11.958;2022-08-05T04:38:38;11.18;;;3.13;;
12990;SDS011;6560;57.692;11.958;2022-08-05T04:41:03;5.15;;;2.13;;
12990;SDS011;6560;57.692;11.958;2022-08-05T04:43:29;11.57;;;3.05;;
12990;SDS011;6560;57.692;11.958;2022-08-05T04:45:54;13.02;;;2.92;;
12990;SDS011;6560;57.692;11.958;2022-08-05T04:48:20;12.05;;;3.20;;
12990;SDS011;6560;57.692;11.958;2022-08-05T04:50:46;9.48;;;3.45;;
12990;SDS011;6560;57.692;11.958;2022-08-05T04:53:13;15.82;;;3.53;;
12990;SDS011;6560;57.692;11.958;2022-08-05T04:55:40;9.30;;;2.65;;
12990;SDS011;6560;57.692;11.958;2022-08-05T04:58:07;5.80;;;1.75;;
12990;SDS011;6560;57.692;11.958;2022-08-05T05:00:34;7.45;;;2.97;;
12990;SDS011;6560;57.692;11.958;2022-08-05T05:03:01;6.70;;;2.20;;
12990;SDS011;6560;57.692;11.958;2022-08-05T05:05:27;10.88;;;2.45;;
12990;SDS011;6560;57.692;11.958;2022-08-05T05:07:54;6.57;;;2.08;;
12990;SDS011;6560;57.692;11.958;2022-08-05T05:10:23;12.50;;;2.70;;
12990;SDS011;6560;57.692;11.958;2022-08-05T05:12:49;7.90;;;2.47;;
12990;SDS011;6560;57.692;11.958;2022-08-05T05:15:14;6.53;;;2.13;;
12990;SDS011;6560;57.692;11.958;2022-08-05T05:17:40;12.38;;;2.40;;
12990;SDS011;6560;57.692;11.958;2022-08-05T05:20:08;7.00;;;2.30;;
12990;SDS011;6560;57.692;11.958;2022-08-05T05:22:34;8.02;;;2.00;;
12990;SDS011;6560;57.692;11.958;2022-08-05T05:25:00;4.05;;;1.70;;
12990;SDS011;6560;57.692;11.958;2022-08-05T05:27:30;10.15;;;2.25;;
12990;SDS011;6560;57.692;11.958;2022-08-05T05:29:57;8.13;;;2.20;;
12990;SDS011;6560;57.692;11.958;2022-08-05T05:32:22;9.27;;;2.67;;
12990;SDS011;6560;57.692;11.958;2022-08-05T05:34:48;11.32;;;1.83;;
12990;SDS011;6560;57.692;11.958;2022-08-05T05:37:14;6.03;;;2.05;;
12990;SDS011;6560;57.692;11.958;2022-08-05T05:39:40;12.73;;;2.05;;
12990;SDS011;6560;57.692;11.958;2022-08-05T05:42:05;7.32;;;2.67;;
12990;SDS011;6560;57.692;11.958;2022-08-05T05:44:31;7.95;;;2.42;;
12990;SDS011;6560;57.692;11.958;2022-08-05T05:46:56;5.13;;;1.75;;
12990;SDS011;6560;57.692;11.958;2022-08-05T05:49:22;3.95;;;1.75;;
12990;SDS011;6560;57.692;11.958;2022-08-05T05:51:48;7.22;;;1.85;;
12990;SDS011;6560;57.692;11.958;2022-08-05T05:54:13;9.57;;;2.38;;
12990;SDS011;6560;57.692;11.958;2022-08-05T05:56:39;5.68;;;1.63;;
12990;SDS011;6560;57.692;11.958;2022-08-05T05:59:05;7.10;;;1.70;;
12990;SDS011;6560;57.692;11.958;2022-08-05T06:01:31;5.78;;;1.80;;
12990;SDS011;6560;57.692;11.958;2022-08-05T06:03:57;8.52;;;2.63;;
12990;SDS011;6560;57.692;11.958;2022-08-05T06:06:23;8.82;;;2.00;;
12990;SDS011;6560;57.692;11.958;2022-08-05T06:08:48;6.43;;;2.13;;
12990;SDS011;6560;57.692;11.958;2022-08-05T06:11:13;8.02;;;2.65;;
12990;SDS011;6560;57.692;11.958;2022-08-05T06:13:39;3.95;;;1.77;;
12990;SDS011;6560;57.692;11.958;2022-08-05T06:16:04;7.65;;;2.20;;
12990;SDS011;6560;57.692;11.958;2022-08-05T06:18:30;7.75;;;2.33;;
12990;SDS011;6560;57.692;11.958;2022-08-05T06:20:55;8.10;;;2.63;;
12990;SDS011;6560;57.692;11.958;2022-08-05T06:23:21;5.57;;;2.35;;
12990;SDS011;6560;57.692;11.958;2022-08-05T06:25:46;5.13;;;2.08;;
12990;SDS011;6560;57.692;11.958;2022-08-05T06:28:13;3.78;;;2.03;;
12990;SDS011;6560;57.692;11.958;2022-08-05T06:30:38;7.57;;;2.35;;
12990;SDS011;6560;57.692;11.958;2022-08-05T06:33:04;8.70;;;1.90;;
12990;SDS011;6560;57.692;11.958;2022-08-05T06:35:29;4.93;;;1.80;;
12990;SDS011;6560;57.692;11.958;2022-08-05T06:37:54;8.25;;;1.88;;
12990;SDS011;6560;57.692;11.958;2022-08-05T06:40:20;5.20;;;1.65;;
12990;SDS011;6560;57.692;11.958;2022-08-05T06:42:45;3.92;;;1.30;;
12990;SDS011;6560;57.692;11.958;2022-08-05T06:45:12;11.02;;;1.73;;
12990;SDS011;6560;57.692;11.958;2022-08-05T06:47:37;4.93;;;1.88;;
12990;SDS011;6560;57.692;11.958;2022-08-05T06:50:03;5.57;;;1.83;;
12990;SDS011;6560;57.692;11.958;2022-08-05T06:52:28;3.70;;;1.60;;
12990;SDS011;6560;57.692;11.958;2022-08-05T06:54:54;6.45;;;1.50;;
12990;SDS011;6560;57.692;11.958;2022-08-05T06:57:20;9.55;;;2.40;;
12990;SDS011;6560;57.692;11.958;2022-08-05T06:59:45;6.30;;;1.73;;
12990;SDS011;6560;57.692;11.958;2022-08-05T07:02:11;7.45;;;1.80;;
12990;SDS011;6560;57.692;11.958;2022-08-05T07:04:36;8.43;;;1.50;;
12990;SDS011;6560;57.692;11.958;2022-08-05T07:07:02;4.20;;;1.33;;
12990;SDS011;6560;57.692;11.958;2022-08-05T07:09:27;7.03;;;1.33;;
12990;SDS011;6560;57.692;11.958;2022-08-05T07:11:53;2.50;;;1.30;;
12990;SDS011;6560;57.692;11.958;2022-08-05T07:14:20;2.10;;;1.13;;
12990;SDS011;6560;57.692;11.958;2022-08-05T07:17:04;5.78;;;1.48;;
12990;SDS011;6560;57.692;11.958;2022-08-05T07:19:29;3.63;;;1.02;;
12990;SDS011;6560;57.692;11.958;2022-08-05T07:21:55;5.53;;;1.50;;
12990;SDS011;6560;57.692;11.958;2022-08-05T07:24:21;5.10;;;0.98;;
12990;SDS011;6560;57.692;11.958;2022-08-05T07:26:47;5.05;;;1.55;;
12990;SDS011;6560;57.692;11.958;2022-08-05T07:29:13;4.15;;;1.08;;
12990;SDS011;6560;57.692;11.958;2022-08-05T07:31:39;5.43;;;1.42;;
12990;SDS011;6560;57.692;11.958;2022-08-05T07:34:05;6.90;;;1.73;;
12990;SDS011;6560;57.692;11.958;2022-08-05T07:36:31;2.65;;;1.00;;
12990;SDS011;6560;57.692;11.958;2022-08-05T07:38:58;5.13;;;1.40;;
12990;SDS011;6560;57.692;11.958;2022-08-05T07:41:24;2.55;;;0.80;;
12990;SDS011;6560;57.692;11.958;2022-08-05T07:43:50;3.58;;;0.98;;
12990;SDS011;6560;57.692;11.958;2022-08-05T07:46:16;2.97;;;1.33;;
12990;SDS011;6560;57.692;11.958;2022-08-05T07:48:42;4.18;;;1.05;;
12990;SDS011;6560;57.692;11.958;2022-08-05T07:51:07;5.45;;;1.50;;
12990;SDS011;6560;57.692;11.958;2022-08-05T07:53:33;3.35;;;1.10;;
12990;SDS011;6560;57.692;11.958;2022-08-05T07:56:00;5.00;;;0.98;;
12990;SDS011;6560;57.692;11.958;2022-08-05T07:58:26;2.90;;;0.98;;
12990;SDS011;6560;57.692;11.958;2022-08-05T08:00:51;6.50;;;1.55;;
12990;SDS011;6560;57.692;11.958;2022-08-05T08:03:17;3.60;;;0.85;;
12990;SDS011;6560;57.692;11.958;2022-08-05T08:05:42;5.70;;;1.33;;
12990;SDS011;6560;57.692;11.958;2022-08-05T08:08:09;4.80;;;1.02;;
12990;SDS011;6560;57.692;11.958;2022-08-05T08:10:34;6.00;;;1.30;;
12990;SDS011;6560;57.692;11.958;2022-08-05T08:13:00;1.90;;;0.73;;
12990;SDS011;6560;57.692;11.958;2022-08-05T08:15:26;4.18;;;1.30;;
12990;SDS011;6560;57.692;11.958;2022-08-05T08:17:52;10.10;;;1.85;;
12990;SDS011;6560;57.692;11.958;2022-08-05T08:20:17;2.33;;;0.75;;
12990;SDS011;6560;57.692;11.958;2022-08-05T08:22:49;2.35;;;0.85;;
12990;SDS011;6560;57.692;11.958;2022-08-05T08:25:24;6.63;;;1.20;;
12990;SDS011;6560;57.692;11.958;2022-08-05T08:27:51;3.35;;;1.55;;
12990;SDS011;6560;57.692;11.958;2022-08-05T08:30:16;2.35;;;1.08;;
12990;SDS011;6560;57.692;11.958;2022-08-05T08:32:42;2.30;;;0.90;;
12990;SDS011;6560;57.692;11.958;2022-08-05T08:35:08;2.70;;;1.25;;
12990;SDS011;6560;57.692;11.958;2022-08-05T08:37:33;2.42;;;1.08;;
12990;SDS011;6560;57.692;11.958;2022-08-05T08:39:59;1.45;;;0.73;;
12990;SDS011;6560;57.692;11.958;2022-08-05T08:42:25;2.30;;;0.93;;
12990;SDS011;6560;57.692;11.958;2022-08-05T08:44:54;2.17;;;0.73;;
12990;SDS011;6560;57.692;11.958;2022-08-05T08:47:21;4.18;;;1.40;;
12990;SDS011;6560;57.692;11.958;2022-08-05T08:49:51;4.10;;;1.23;;
12990;SDS011;6560;57.692;11.958;2022-08-05T08:52:24;3.58;;;0.80;;
12990;SDS011;6560;57.692;11.958;2022-08-05T08:54:54;3.58;;;0.98;;
12990;SDS011;6560;57.692;11.958;2022-08-05T08:57:20;1.77;;;0.88;;
12990;SDS011;6560;57.692;11.958;2022-08-05T08:59:45;3.35;;;1.02;;
12990;SDS011;6560;57.692;11.958;2022-08-05T09:02:12;3.17;;;0.80;;
12990;SDS011;6560;57.692;11.958;2022-08-05T09:04:38;5.05;;;0.90;;
12990;SDS011;6560;57.692;11.958;2022-08-05T09:07:04;0.85;;;0.50;;
12990;SDS011;6560;57.692;11.958;2022-08-05T09:09:31;4.70;;;0.60;;
12990;SDS011;6560;57.692;11.958;2022-08-05T09:11:57;1.60;;;0.75;;
12990;SDS011;6560;57.692;11.958;2022-08-05T09:14:23;1.65;;;0.93;;
12990;SDS011;6560;57.692;11.958;2022-08-05T09:16:48;2.83;;;0.80;;
12990;SDS011;6560;57.692;11.958;2022-08-05T09:19:14;2.30;;;0.63;;
12990;SDS011;6560;57.692;11.958;2022-08-05T09:21:39;2.38;;;0.52;;
12990;SDS011;6560;57.692;11.958;2022-08-05T09:24:06;3.05;;;0.75;;
12990;SDS011;6560;57.692;11.958;2022-08-05T09:26:33;3.05;;;0.75;;
12990;SDS011;6560;57.692;11.958;2022-08-05T09:29:00;4.85;;;1.10;;
12990;SDS011;6560;57.692;11.958;2022-08-05T09:31:28;4.45;;;1.27;;
12990;SDS011;6560;57.692;11.958;2022-08-05T09:34:04;2.58;;;0.75;;
12990;SDS011;6560;57.692;11.958;2022-08-05T09:36:40;1.63;;;0.68;;
12990;SDS011;6560;57.692;11.958;2022-08-05T09:39:07;2.53;;;0.90;;
12990;SDS011;6560;57.692;11.958;2022-08-05T09:41:34;1.58;;;0.88;;
12990;SDS011;6560;57.692;11.958;2022-08-05T09:44:35;2.70;;;0.95;;
12990;SDS011;6560;57.692;11.958;2022-08-05T09:47:12;2.30;;;0.82;;
12990;SDS011;6560;57.692;11.958;2022-08-05T09:49:43;6.22;;;1.23;;
12990;SDS011;6560;57.692;11.958;2022-08-05T09:54:52;3.33;;;1.30;;
12990;SDS011;6560;57.692;11.958;2022-08-05T09:57:42;2.55;;;0.57;;
12990;SDS011;6560;57.692;11.958;2022-08-05T10:02:39;2.55;;;0.77;;
12990;SDS011;6560;57.692;11.958;2022-08-05T10:05:17;3.67;;;0.55;;
12990;SDS011;6560;57.692;11.958;2022-08-05T10:07:55;3.65;;;0.93;;
12990;SDS011;6560;57.692;11.958;2022-08-05T10:13:09;2.42;;;0.90;;
12990;SDS011;6560;57.692;11.958;2022-08-05T10:15:35;3.05;;;0.88;;
12990;SDS011;6560;57.692;11.958;2022-08-05T10:18:13;3.03;;;0.75;;
12990;SDS011;6560;57.692;11.958;2022-08-05T10:20:47;2.75;;;0.93;;
12990;SDS011;6560;57.692;11.958;2022-08-05T10:26:00;3.38;;;1.25;;
12990;SDS011;6560;57.692;11.958;2022-08-05T10:28:28;2.55;;;1.40;;
12990;SDS011;6560;57.692;11.958;2022-08-05T10:30:54;3.35;;;1.15;;
12990;SDS011;6560;57.692;11.958;2022-08-05T10:33:21;3.17;;;0.90;;
12990;SDS011;6560;57.692;11.958;2022-08-05T10:35:51;2.00;;;1.10;;
12990;SDS011;6560;57.692;11.958;2022-08-05T10:38:20;4.72;;;1.05;;
12990;SDS011;6560;57.692;11.958;2022-08-05T10:46:09;1.17;;;0.57;;
12990;SDS011;6560;57.692;11.958;2022-08-05T10:53:41;3.65;;;0.95;;
12990;SDS011;6560;57.692;11.958;2022-08-05T10:56:18;1.30;;;0.88;;
12990;SDS011;6560;57.692;11.958;2022-08-05T11:04:10;1.52;;;0.60;;
12990;SDS011;6560;57.692;11.958;2022-08-05T11:09:21;2.13;;;0.95;;
12990;SDS011;6560;57.692;11.958;2022-08-05T11:11:48;4.45;;;0.82;;
12990;SDS011;6560;57.692;11.958;2022-08-05T11:14:26;5.70;;;0.70;;
12990;SDS011;6560;57.692;11.958;2022-08-05T11:19:58;5.10;;;0.93;;
12990;SDS011;6560;57.692;11.958;2022-08-05T11:22:46;2.35;;;1.35;;
12990;SDS011;6560;57.692;11.958;2022-08-05T11:33:26;2.38;;;0.65;;
12990;SDS011;6560;57.692;11.958;2022-08-05T11:35:56;1.98;;;0.60;;
12990;SDS011;6560;57.692;11.958;2022-08-05T11:38:56;1.60;;;0.68;;
12990;SDS011;6560;57.692;11.958;2022-08-05T11:41:27;6.72;;;0.80;;
12990;SDS011;6560;57.692;11.958;2022-08-05T11:43:59;1.58;;;0.70;;
12990;SDS011;6560;57.692;11.958;2022-08-05T11:46:33;1.90;;;0.52;;
12990;SDS011;6560;57.692;11.958;2022-08-05T11:49:11;2.83;;;0.60;;
12990;SDS011;6560;57.692;11.958;2022-08-05T11:51:42;196.57;;;11.75;;
12990;SDS011;6560;57.692;11.958;2022-08-05T11:54:10;3.85;;;0.82;;
12990;SDS011;6560;57.692;11.958;2022-08-05T11:56:54;3.75;;;0.90;;
12990;SDS011;6560;57.692;11.958;2022-08-05T11:59:21;3.08;;;0.50;;
12990;SDS011;6560;57.692;11.958;2022-08-05T12:04:26;1.08;;;0.60;;
12990;SDS011;6560;57.692;11.958;2022-08-05T12:06:53;3.22;;;0.85;;
12990;SDS011;6560;57.692;11.958;2022-08-05T12:09:23;2.83;;;0.50;;
12990;SDS011;6560;57.692;11.958;2022-08-05T12:11:51;2.08;;;0.80;;
12990;SDS011;6560;57.692;11.958;2022-08-05T12:14:17;2.17;;;0.85;;
12990;SDS011;6560;57.692;11.958;2022-08-05T12:16:43;1.30;;;0.65;;
12990;SDS011;6560;57.692;11.958;2022-08-05T12:19:11;2.45;;;0.68;;
12990;SDS011;6560;57.692;11.958;2022-08-05T12:21:41;1.60;;;0.63;;
12990;SDS011;6560;57.692;11.958;2022-08-05T12:24:15;1.75;;;0.50;;
12990;SDS011;6560;57.692;11.958;2022-08-05T12:29:15;1.85;;;0.65;;
12990;SDS011;6560;57.692;11.958;2022-08-05T12:31:49;2.03;;;0.55;;
12990;SDS011;6560;57.692;11.958;2022-08-05T12:34:17;3.05;;;0.70;;
12990;SDS011;6560;57.692;11.958;2022-08-05T12:36:43;3.35;;;0.52;;
12990;SDS011;6560;57.692;11.958;2022-08-05T12:39:11;4.03;;;0.70;;
12990;SDS011;6560;57.692;11.958;2022-08-05T12:41:37;2.58;;;0.40;;
12990;SDS011;6560;57.692;11.958;2022-08-05T12:44:08;1.73;;;0.70;;
12990;SDS011;6560;57.692;11.958;2022-08-05T12:46:35;2.47;;;0.40;;
12990;SDS011;6560;57.692;11.958;2022-08-05T12:49:11;0.50;;;0.40;;
12990;SDS011;6560;57.692;11.958;2022-08-05T12:51:56;4.72;;;0.80;;
12990;SDS011;6560;57.692;11.958;2022-08-05T12:54:23;0.57;;;0.40;;
12990;SDS011;6560;57.692;11.958;2022-08-05T12:56:57;3.03;;;0.80;;
12990;SDS011;6560;57.692;11.958;2022-08-05T13:01:56;0.93;;;0.50;;
12990;SDS011;6560;57.692;11.958;2022-08-05T13:07:17;1.35;;;0.68;;
12990;SDS011;6560;57.692;11.958;2022-08-05T13:09:48;1.30;;;0.50;;
12990;SDS011;6560;57.692;11.958;2022-08-05T13:12:18;2.50;;;0.30;;
12990;SDS011;6560;57.692;11.958;2022-08-05T13:14:47;1.80;;;0.43;;
12990;SDS011;6560;57.692;11.958;2022-08-05T13:17:18;2.67;;;0.57;;
12990;SDS011;6560;57.692;11.958;2022-08-05T13:22:36;2.75;;;0.63;;
12990;SDS011;6560;57.692;11.958;2022-08-05T13:25:04;2.28;;;0.43;;
12990;SDS011;6560;57.692;11.958;2022-08-05T13:27:35;1.98;;;0.57;;
12990;SDS011;6560;57.692;11.958;2022-08-05T13:30:03;1.67;;;0.63;;
12990;SDS011;6560;57.692;11.958;2022-08-05T13:32:31;1.75;;;0.50;;
12990;SDS011;6560;57.692;11.958;2022-08-05T13:34:56;3.35;;;0.75;;
12990;SDS011;6560;57.692;11.958;2022-08-05T13:37:22;1.08;;;0.50;;
12990;SDS011;6560;57.692;11.958;2022-08-05T13:39:48;1.05;;;0.55;;
12990;SDS011;6560;57.692;11.958;2022-08-05T13:42:20;1.05;;;0.60;;
12990;SDS011;6560;57.692;11.958;2022-08-05T13:44:49;1.88;;;0.43;;
12990;SDS011;6560;57.692;11.958;2022-08-05T13:47:15;1.00;;;0.73;;
12990;SDS011;6560;57.692;11.958;2022-08-05T13:49:41;3.80;;;0.75;;
12990;SDS011;6560;57.692;11.958;2022-08-05T13:52:11;1.85;;;0.60;;
12990;SDS011;6560;57.692;11.958;2022-08-05T13:54:37;3.58;;;0.60;;
12990;SDS011;6560;57.692;11.958;2022-08-05T13:57:04;1.95;;;1.13;;
12990;SDS011;6560;57.692;11.958;2022-08-05T13:59:30;1.75;;;0.50;;
12990;SDS011;6560;57.692;11.958;2022-08-05T14:01:56;1.95;;;0.47;;
12990;SDS011;6560;57.692;11.958;2022-08-05T14:04:22;3.95;;;0.50;;
12990;SDS011;6560;57.692;11.958;2022-08-05T14:07:07;2.05;;;0.98;;
12990;SDS011;6560;57.692;11.958;2022-08-05T14:09:33;1.55;;;0.70;;
12990;SDS011;6560;57.692;11.958;2022-08-05T14:11:59;3.58;;;0.90;;
12990;SDS011;6560;57.692;11.958;2022-08-05T14:14:24;2.53;;;0.93;;
12990;SDS011;6560;57.692;11.958;2022-08-05T14:16:50;2.92;;;0.75;;
12990;SDS011;6560;57.692;11.958;2022-08-05T14:19:16;2.42;;;0.98;;
12990;SDS011;6560;57.692;11.958;2022-08-05T14:21:42;2.15;;;0.82;;
12990;SDS011;6560;57.692;11.958;2022-08-05T14:24:07;4.10;;;1.08;;
12990;SDS011;6560;57.692;11.958;2022-08-05T14:26:36;4.13;;;0.95;;
12990;SDS011;6560;57.692;11.958;2022-08-05T14:29:03;0.63;;;0.60;;
12990;SDS011;6560;57.692;11.958;2022-08-05T14:31:29;2.03;;;0.73;;
12990;SDS011;6560;57.692;11.958;2022-08-05T14:33:54;3.55;;;1.25;;
12990;SDS011;6560;57.692;11.958;2022-08-05T14:36:20;2.40;;;0.57;;
12990;SDS011;6560;57.692;11.958;2022-08-05T14:38:45;4.15;;;1.33;;
12990;SDS011;6560;57.692;11.958;2022-08-05T14:41:11;2.13;;;0.65;;
12990;SDS011;6560;57.692;11.958;2022-08-05T14:43:37;4.97;;;0.90;;
12990;SDS011;6560;57.692;11.958;2022-08-05T14:46:02;1.75;;;0.80;;
12990;SDS011;6560;57.692;11.958;2022-08-05T14:48:28;3.95;;;0.80;;
12990;SDS011;6560;57.692;11.958;2022-08-05T14:50:53;3.60;;;0.55;;
12990;SDS011;6560;57.692;11.958;2022-08-05T14:53:19;3.90;;;1.15;;
12990;SDS011;6560;57.692;11.958;2022-08-05T14:55:44;1.13;;;0.60;;
12990;SDS011;6560;57.692;11.958;2022-08-05T14:58:10;5.20;;;1.02;;
12990;SDS011;6560;57.692;11.958;2022-08-05T15:00:35;2.20;;;0.90;;
12990;SDS011;6560;57.692;11.958;2022-08-05T15:03:01;3.03;;;0.90;;
12990;SDS011;6560;57.692;11.958;2022-08-05T15:05:27;3.03;;;1.10;;
12990;SDS011;6560;57.692;11.958;2022-08-05T15:07:53;2.33;;;0.82;;
12990;SDS011;6560;57.692;11.958;2022-08-05T15:10:18;3.90;;;1.00;;
12990;SDS011;6560;57.692;11.958;2022-08-05T15:12:44;4.72;;;1.25;;
12990;SDS011;6560;57.692;11.958;2022-08-05T15:15:09;3.58;;;1.08;;
12990;SDS011;6560;57.692;11.958;2022-08-05T15:17:35;3.80;;;0.65;;
12990;SDS011;6560;57.692;11.958;2022-08-05T15:20:01;2.80;;;1.27;;
12990;SDS011;6560;57.692;11.958;2022-08-05T15:22:27;1.65;;;0.73;;
12990;SDS011;6560;57.692;11.958;2022-08-05T15:24:52;1.73;;;0.77;;
12990;SDS011;6560;57.692;11.958;2022-08-05T15:27:18;1.65;;;0.73;;
12990;SDS011;6560;57.692;11.958;2022-08-05T15:29:44;4.70;;;1.17;;
12990;SDS011;6560;57.692;11.958;2022-08-05T15:32:09;2.58;;;1.35;;
12990;SDS011;6560;57.692;11.958;2022-08-05T15:34:35;1.63;;;0.65;;
12990;SDS011;6560;57.692;11.958;2022-08-05T15:37:00;3.13;;;1.30;;
12990;SDS011;6560;57.692;11.958;2022-08-05T15:39:26;2.60;;;0.73;;
12990;SDS011;6560;57.692;11.958;2022-08-05T15:41:51;3.05;;;1.00;;
12990;SDS011;6560;57.692;11.958;2022-08-05T15:44:16;3.00;;;1.13;;
12990;SDS011;6560;57.692;11.958;2022-08-05T15:46:42;2.00;;;0.90;;
12990;SDS011;6560;57.692;11.958;2022-08-05T15:49:07;3.08;;;0.75;;
12990;SDS011;6560;57.692;11.958;2022-08-05T15:51:33;2.38;;;0.70;;
12990;SDS011;6560;57.692;11.958;2022-08-05T15:53:58;3.88;;;1.00;;